JES3109 SACO-SABE
Flight info
| Callsign | JES3109 |
|---|---|
| Flight time | 1h 3m |
| Altitude | 35000 |
| Route | UTRAX UW24 SNT SNT9R |
| Aircraft | A320/M-SDE3FGHIRWY/LB1 |
Departure
| Time | 2026-05-03 22:17 |
|---|---|
| Airport | Ingeniero Aeronáutico Ambrosio L.V. Taravella International Airport (SACO) |
Arrival
| Time | 2026-05-03 23:20 |
|---|---|
| Airport | Aeroparque Jorge Newbery (SABE) |
| Time | Latitude | Longitude | Altitude | Speed | Heading |
|---|---|---|---|---|---|
| 2026-05-03 21:42 | -31.31395 | -64.21196 | 1589 ft | 0 kts | 270° |
| 2026-05-03 22:04 | -31.31395 | -64.21185 | 1589 ft | 2 kts | 266° |
| 2026-05-03 22:04 | -31.31395 | -64.21166 | 1590 ft | 2 kts | 267° |
| 2026-05-03 22:04 | -31.31394 | -64.21147 | 1590 ft | 2 kts | 262° |
| 2026-05-03 22:04 | -31.31391 | -64.21128 | 1595 ft | 2 kts | 248° |
| 2026-05-03 22:05 | -31.31382 | -64.21111 | 1592 ft | 2 kts | 204° |
| 2026-05-03 22:05 | -31.31369 | -64.21107 | 1597 ft | 1 kts | 183° |
| 2026-05-03 22:05 | -31.31364 | -64.21107 | 1595 ft | 0 kts | 182° |
| 2026-05-03 22:08 | -31.31371 | -64.21107 | 1592 ft | 3 kts | 181° |
| 2026-05-03 22:08 | -31.31409 | -64.21107 | 1591 ft | 8 kts | 180° |
| 2026-05-03 22:08 | -31.31475 | -64.21108 | 1589 ft | 12 kts | 179° |
| 2026-05-03 22:09 | -31.31567 | -64.21106 | 1588 ft | 15 kts | 179° |
| 2026-05-03 22:09 | -31.31671 | -64.21104 | 1588 ft | 15 kts | 179° |
| 2026-05-03 22:09 | -31.31758 | -64.21061 | 1588 ft | 15 kts | 145° |
| 2026-05-03 22:10 | -31.31963 | -64.21026 | 1587 ft | 16 kts | 178° |
| 2026-05-03 22:10 | -31.32072 | -64.21029 | 1586 ft | 16 kts | 174° |
| 2026-05-03 22:10 | -31.32195 | -64.21022 | 1584 ft | 19 kts | 180° |
| 2026-05-03 22:10 | -31.32303 | -64.21021 | 1584 ft | 12 kts | 179° |
| 2026-05-03 22:11 | -31.32375 | -64.21015 | 1585 ft | 6 kts | 170° |
| 2026-05-03 22:11 | -31.32392 | -64.21008 | 1585 ft | 0 kts | 154° |
| 2026-05-03 22:14 | -31.32407 | -64.20996 | 1585 ft | 7 kts | 143° |
| 2026-05-03 22:14 | -31.32435 | -64.20916 | 1585 ft | 14 kts | 87° |
| 2026-05-03 22:14 | -31.32379 | -64.20819 | 1583 ft | 15 kts | 44° |
| 2026-05-03 22:14 | -31.32315 | -64.20745 | 1583 ft | 12 kts | 47° |
| 2026-05-03 22:15 | -31.32303 | -64.20730 | 1583 ft | 0 kts | 44° |
| 2026-05-03 22:16 | -31.32196 | -64.20612 | 1582 ft | 54 kts | 44° |
| 2026-05-03 22:17 | -31.31759 | -64.20117 | 1572 ft | 117 kts | 44° |
| 2026-05-03 22:17 | -31.31064 | -64.19328 | 1722 ft | 150 kts | 42° |
| 2026-05-03 22:17 | -31.30330 | -64.18457 | 2382 ft | 152 kts | 43° |
| 2026-05-03 22:17 | -31.29601 | -64.17557 | 3036 ft | 153 kts | 44° |
| 2026-05-03 22:18 | -31.28865 | -64.16630 | 3543 ft | 163 kts | 44° |
| 2026-05-03 22:18 | -31.28053 | -64.15596 | 3909 ft | 182 kts | 44° |
| 2026-05-03 22:18 | -31.27167 | -64.14459 | 4353 ft | 196 kts | 43° |
| 2026-05-03 22:18 | -31.26196 | -64.13229 | 4742 ft | 217 kts | 43° |
| 2026-05-03 22:19 | -31.25102 | -64.11872 | 5153 ft | 241 kts | 43° |
| 2026-05-03 22:19 | -31.23891 | -64.10399 | 5670 ft | 262 kts | 42° |
| 2026-05-03 22:19 | -31.22589 | -64.08831 | 6383 ft | 273 kts | 42° |
| 2026-05-03 22:19 | -31.21255 | -64.07221 | 7211 ft | 278 kts | 43° |
| 2026-05-03 22:20 | -31.19900 | -64.05586 | 8059 ft | 282 kts | 43° |
| 2026-05-03 22:20 | -31.18520 | -64.03940 | 8927 ft | 286 kts | 43° |
| 2026-05-03 22:20 | -31.17095 | -64.02268 | 9623 ft | 295 kts | 43° |
| 2026-05-03 22:20 | -31.15613 | -64.00563 | 10280 ft | 303 kts | 43° |
| 2026-05-03 22:21 | -31.14079 | -63.98819 | 10835 ft | 314 kts | 42° |
| 2026-05-03 22:21 | -31.12491 | -63.97010 | 11368 ft | 325 kts | 43° |
| 2026-05-03 22:21 | -31.10833 | -63.95125 | 11742 ft | 341 kts | 42° |
| 2026-05-03 22:21 | -31.09095 | -63.93158 | 12167 ft | 353 kts | 42° |
| 2026-05-03 22:22 | -31.07314 | -63.91144 | 12772 ft | 359 kts | 43° |
| 2026-05-03 22:22 | -31.05774 | -63.88837 | 13388 ft | 366 kts | 62° |
| 2026-05-03 22:22 | -31.05042 | -63.85985 | 13965 ft | 372 kts | 84° |
| 2026-05-03 22:22 | -31.05209 | -63.82972 | 14486 ft | 375 kts | 105° |
| 2026-05-03 22:23 | -31.06259 | -63.80162 | 15043 ft | 374 kts | 127° |
| 2026-05-03 22:23 | -31.08030 | -63.77975 | 15601 ft | 371 kts | 147° |
| 2026-05-03 22:23 | -31.10240 | -63.76552 | 15927 ft | 368 kts | 159° |
| 2026-05-03 22:23 | -31.12586 | -63.75342 | 16005 ft | 368 kts | 160° |
| 2026-05-03 22:24 | -31.14971 | -63.74149 | 16072 ft | 370 kts | 161° |
| 2026-05-03 22:24 | -31.17343 | -63.72973 | 16679 ft | 371 kts | 161° |
| 2026-05-03 22:24 | -31.19696 | -63.71800 | 17297 ft | 374 kts | 161° |
| 2026-05-03 22:24 | -31.22126 | -63.70581 | 17903 ft | 377 kts | 161° |
| 2026-05-03 22:25 | -31.24543 | -63.69361 | 18476 ft | 380 kts | 161° |
| 2026-05-03 22:25 | -31.26976 | -63.68121 | 19004 ft | 383 kts | 161° |
| 2026-05-03 22:25 | -31.29422 | -63.66867 | 19549 ft | 385 kts | 161° |
| 2026-05-03 22:25 | -31.31888 | -63.65601 | 20106 ft | 388 kts | 161° |
| 2026-05-03 22:26 | -31.34368 | -63.64331 | 20662 ft | 391 kts | 161° |
| 2026-05-03 22:26 | -31.36870 | -63.63053 | 21206 ft | 393 kts | 161° |
| 2026-05-03 22:26 | -31.39388 | -63.61766 | 21750 ft | 396 kts | 161° |
| 2026-05-03 22:26 | -31.41919 | -63.60473 | 22267 ft | 399 kts | 161° |
| 2026-05-03 22:27 | -31.44471 | -63.59173 | 22790 ft | 401 kts | 161° |
| 2026-05-03 22:27 | -31.47038 | -63.57862 | 23303 ft | 404 kts | 161° |
| 2026-05-03 22:27 | -31.49627 | -63.56535 | 23761 ft | 407 kts | 161° |
| 2026-05-03 22:27 | -31.52221 | -63.55203 | 23966 ft | 408 kts | 161° |
| 2026-05-03 22:28 | -31.54821 | -63.53865 | 24014 ft | 408 kts | 161° |
| 2026-05-03 22:28 | -31.57422 | -63.52527 | 24118 ft | 410 kts | 161° |
| 2026-05-03 22:28 | -31.60044 | -63.51185 | 24590 ft | 412 kts | 161° |
| 2026-05-03 22:28 | -31.62674 | -63.49838 | 25033 ft | 414 kts | 161° |
| 2026-05-03 22:29 | -31.65324 | -63.48480 | 25467 ft | 416 kts | 161° |
| 2026-05-03 22:29 | -31.67988 | -63.47112 | 25896 ft | 419 kts | 161° |
| 2026-05-03 22:29 | -31.70663 | -63.45740 | 26313 ft | 421 kts | 161° |
| 2026-05-03 22:29 | -31.73354 | -63.44357 | 26727 ft | 424 kts | 161° |
| 2026-05-03 22:30 | -31.76062 | -63.42963 | 27139 ft | 426 kts | 161° |
| 2026-05-03 22:30 | -31.78783 | -63.41562 | 27537 ft | 428 kts | 161° |
| 2026-05-03 22:30 | -31.81518 | -63.40151 | 27940 ft | 431 kts | 161° |
| 2026-05-03 22:30 | -31.84270 | -63.38729 | 28336 ft | 433 kts | 161° |
| 2026-05-03 22:31 | -31.86950 | -63.37042 | 28725 ft | 442 kts | 152° |
| 2026-05-03 22:31 | -31.89414 | -63.34828 | 29125 ft | 451 kts | 142° |
| 2026-05-03 22:31 | -31.91579 | -63.32112 | 29516 ft | 459 kts | 133° |
| 2026-05-03 22:31 | -31.93570 | -63.29151 | 29908 ft | 462 kts | 133° |
| 2026-05-03 22:32 | -31.95571 | -63.26176 | 30270 ft | 465 kts | 133° |
| 2026-05-03 22:32 | -31.97582 | -63.23182 | 30600 ft | 467 kts | 133° |
| 2026-05-03 22:32 | -31.99604 | -63.20172 | 30925 ft | 470 kts | 133° |
| 2026-05-03 22:32 | -32.01633 | -63.17151 | 31265 ft | 472 kts | 133° |
| 2026-05-03 22:33 | -32.03675 | -63.14115 | 31617 ft | 473 kts | 133° |
| 2026-05-03 22:33 | -32.05717 | -63.11078 | 32083 ft | 472 kts | 133° |
| 2026-05-03 22:33 | -32.07750 | -63.08047 | 32559 ft | 471 kts | 133° |
| 2026-05-03 22:33 | -32.09775 | -63.05026 | 33037 ft | 469 kts | 133° |
| 2026-05-03 22:34 | -32.11798 | -63.02002 | 33514 ft | 468 kts | 133° |
| 2026-05-03 22:34 | -32.13813 | -62.98984 | 33916 ft | 469 kts | 133° |
| 2026-05-03 22:34 | -32.15828 | -62.95965 | 34008 ft | 468 kts | 133° |
| 2026-05-03 22:35 | -32.19851 | -62.89937 | 34011 ft | 467 kts | 133° |
| 2026-05-03 22:35 | -32.23865 | -62.83918 | 34013 ft | 467 kts | 133° |
| 2026-05-03 22:36 | -32.27870 | -62.77901 | 34017 ft | 466 kts | 133° |
| 2026-05-03 22:36 | -32.31881 | -62.71874 | 34014 ft | 466 kts | 133° |
| 2026-05-03 22:37 | -32.35886 | -62.65845 | 34013 ft | 466 kts | 133° |
| 2026-05-03 22:37 | -32.39871 | -62.59818 | 34293 ft | 465 kts | 133° |
| 2026-05-03 22:37 | -32.41872 | -62.56796 | 34536 ft | 465 kts | 133° |
| 2026-05-03 22:38 | -32.43867 | -62.53782 | 34778 ft | 465 kts | 133° |
| 2026-05-03 22:38 | -32.45860 | -62.50764 | 34960 ft | 466 kts | 133° |
| 2026-05-03 22:38 | -32.47847 | -62.47744 | 35017 ft | 463 kts | 133° |
| 2026-05-03 22:39 | -32.51779 | -62.41759 | 35014 ft | 459 kts | 134° |
| 2026-05-03 22:39 | -32.55699 | -62.35800 | 35019 ft | 458 kts | 134° |
| 2026-05-03 22:40 | -32.58977 | -62.30809 | 35016 ft | 458 kts | 134° |
| 2026-05-03 22:40 | -32.62898 | -62.24848 | 35020 ft | 458 kts | 134° |
| 2026-05-03 22:41 | -32.66806 | -62.18887 | 35024 ft | 458 kts | 134° |
| 2026-05-03 22:41 | -32.70658 | -62.12850 | 35030 ft | 460 kts | 131° |
| 2026-05-03 22:42 | -32.74296 | -62.06599 | 35036 ft | 461 kts | 129° |
| 2026-05-03 22:42 | -32.77881 | -62.00282 | 35039 ft | 461 kts | 130° |
| 2026-05-03 22:43 | -32.81504 | -61.94011 | 35041 ft | 460 kts | 130° |
| 2026-05-03 22:43 | -32.85151 | -61.87764 | 35041 ft | 460 kts | 130° |
| 2026-05-03 22:44 | -32.88789 | -61.81514 | 35045 ft | 460 kts | 130° |
| 2026-05-03 22:44 | -32.92425 | -61.75257 | 35048 ft | 459 kts | 130° |
| 2026-05-03 22:45 | -32.96057 | -61.69005 | 35048 ft | 459 kts | 131° |
| 2026-05-03 22:45 | -32.99682 | -61.62743 | 35052 ft | 459 kts | 130° |
| 2026-05-03 22:46 | -33.03295 | -61.56473 | 35040 ft | 459 kts | 130° |
| 2026-05-03 22:46 | -33.06900 | -61.50192 | 35045 ft | 459 kts | 130° |
| 2026-05-03 22:47 | -33.10509 | -61.43920 | 35048 ft | 459 kts | 131° |
| 2026-05-03 22:47 | -33.14119 | -61.37653 | 35050 ft | 458 kts | 131° |
| 2026-05-03 22:48 | -33.17720 | -61.31370 | 35051 ft | 458 kts | 130° |
| 2026-05-03 22:48 | -33.21316 | -61.25083 | 35052 ft | 458 kts | 131° |
| 2026-05-03 22:49 | -33.24912 | -61.18794 | 35057 ft | 458 kts | 131° |
| 2026-05-03 22:49 | -33.28499 | -61.12495 | 35056 ft | 458 kts | 131° |
| 2026-05-03 22:50 | -33.30894 | -61.08282 | 35060 ft | 458 kts | 131° |
| 2026-05-03 22:50 | -33.35659 | -60.99873 | 35059 ft | 459 kts | 130° |
| 2026-05-03 22:51 | -33.39222 | -60.93538 | 35062 ft | 459 kts | 130° |
| 2026-05-03 22:51 | -33.42774 | -60.87200 | 35061 ft | 459 kts | 130° |
| 2026-05-03 22:52 | -33.46330 | -60.80854 | 35066 ft | 459 kts | 130° |
| 2026-05-03 22:52 | -33.49887 | -60.74509 | 35061 ft | 459 kts | 130° |
| 2026-05-03 22:53 | -33.53435 | -60.68150 | 35064 ft | 459 kts | 130° |
| 2026-05-03 22:53 | -33.56986 | -60.61790 | 35060 ft | 459 kts | 130° |
| 2026-05-03 22:54 | -33.60535 | -60.55426 | 35066 ft | 459 kts | 130° |
| 2026-05-03 22:54 | -33.64071 | -60.49058 | 35066 ft | 459 kts | 130° |
| 2026-05-03 22:55 | -33.67614 | -60.42665 | 35069 ft | 459 kts | 131° |
| 2026-05-03 22:55 | -33.69382 | -60.39479 | 34937 ft | 457 kts | 131° |
| 2026-05-03 22:55 | -33.71129 | -60.36316 | 34699 ft | 453 kts | 131° |
| 2026-05-03 22:55 | -33.72863 | -60.33173 | 34460 ft | 450 kts | 131° |
| 2026-05-03 22:56 | -33.74587 | -60.30054 | 34030 ft | 447 kts | 131° |
| 2026-05-03 22:56 | -33.76304 | -60.26944 | 33495 ft | 446 kts | 131° |
| 2026-05-03 22:56 | -33.78009 | -60.23852 | 33003 ft | 443 kts | 131° |
| 2026-05-03 22:56 | -33.79705 | -60.20774 | 32516 ft | 441 kts | 131° |
| 2026-05-03 22:57 | -33.81394 | -60.17704 | 32039 ft | 438 kts | 131° |
| 2026-05-03 22:57 | -33.83068 | -60.14656 | 31597 ft | 435 kts | 131° |
| 2026-05-03 22:57 | -33.84733 | -60.11633 | 31161 ft | 432 kts | 131° |
| 2026-05-03 22:57 | -33.86403 | -60.08636 | 30745 ft | 429 kts | 132° |
| 2026-05-03 22:58 | -33.88068 | -60.05674 | 30324 ft | 426 kts | 132° |
| 2026-05-03 22:58 | -33.89732 | -60.02727 | 29876 ft | 424 kts | 132° |
| 2026-05-03 22:58 | -33.91376 | -59.99800 | 29476 ft | 420 kts | 132° |
| 2026-05-03 22:58 | -33.93001 | -59.96890 | 29084 ft | 417 kts | 132° |
| 2026-05-03 22:59 | -33.94609 | -59.94009 | 28695 ft | 413 kts | 132° |
| 2026-05-03 22:59 | -33.96207 | -59.91146 | 28311 ft | 410 kts | 132° |
| 2026-05-03 22:59 | -33.97790 | -59.88307 | 27937 ft | 407 kts | 132° |
| 2026-05-03 22:59 | -33.99359 | -59.85486 | 27553 ft | 404 kts | 132° |
| 2026-05-03 23:00 | -34.00917 | -59.82681 | 27187 ft | 401 kts | 132° |
| 2026-05-03 23:00 | -34.02462 | -59.79894 | 26786 ft | 399 kts | 132° |
| 2026-05-03 23:00 | -34.04000 | -59.77118 | 26389 ft | 397 kts | 132° |
| 2026-05-03 23:00 | -34.05527 | -59.74361 | 25998 ft | 394 kts | 132° |
| 2026-05-03 23:01 | -34.07050 | -59.71617 | 25589 ft | 393 kts | 132° |
| 2026-05-03 23:01 | -34.08565 | -59.68883 | 25187 ft | 391 kts | 132° |
| 2026-05-03 23:01 | -34.10076 | -59.66152 | 24772 ft | 390 kts | 132° |
| 2026-05-03 23:01 | -34.11579 | -59.63436 | 24353 ft | 389 kts | 132° |
| 2026-05-03 23:02 | -34.13079 | -59.60724 | 23931 ft | 388 kts | 132° |
| 2026-05-03 23:02 | -34.14579 | -59.58011 | 23493 ft | 388 kts | 132° |
| 2026-05-03 23:02 | -34.16074 | -59.55307 | 23044 ft | 386 kts | 132° |
| 2026-05-03 23:02 | -34.17557 | -59.52620 | 22621 ft | 383 kts | 132° |
| 2026-05-03 23:03 | -34.19028 | -59.49951 | 22204 ft | 381 kts | 132° |
| 2026-05-03 23:03 | -34.20490 | -59.47296 | 21780 ft | 379 kts | 132° |
| 2026-05-03 23:03 | -34.21945 | -59.44659 | 21362 ft | 376 kts | 132° |
| 2026-05-03 23:03 | -34.23385 | -59.42019 | 20953 ft | 375 kts | 131° |
| 2026-05-03 23:04 | -34.24793 | -59.39372 | 20539 ft | 374 kts | 130° |
| 2026-05-03 23:04 | -34.26181 | -59.36724 | 20124 ft | 372 kts | 130° |
| 2026-05-03 23:04 | -34.27558 | -59.34083 | 19713 ft | 371 kts | 130° |
| 2026-05-03 23:04 | -34.28930 | -59.31451 | 19302 ft | 369 kts | 130° |
| 2026-05-03 23:05 | -34.30303 | -59.28826 | 18883 ft | 368 kts | 130° |
| 2026-05-03 23:05 | -34.31671 | -59.26218 | 18472 ft | 367 kts | 129° |
| 2026-05-03 23:05 | -34.33037 | -59.23614 | 18019 ft | 366 kts | 129° |
| 2026-05-03 23:05 | -34.34392 | -59.21026 | 17612 ft | 363 kts | 129° |
| 2026-05-03 23:06 | -34.35737 | -59.18460 | 17204 ft | 360 kts | 129° |
| 2026-05-03 23:06 | -34.37074 | -59.15910 | 16801 ft | 357 kts | 129° |
| 2026-05-03 23:06 | -34.38401 | -59.13381 | 16397 ft | 354 kts | 129° |
| 2026-05-03 23:06 | -34.39717 | -59.10871 | 16010 ft | 352 kts | 129° |
| 2026-05-03 23:07 | -34.41023 | -59.08378 | 15618 ft | 350 kts | 129° |
| 2026-05-03 23:07 | -34.42318 | -59.05898 | 15243 ft | 347 kts | 129° |
| 2026-05-03 23:07 | -34.43604 | -59.03436 | 14851 ft | 345 kts | 129° |
| 2026-05-03 23:07 | -34.44885 | -59.00984 | 14468 ft | 343 kts | 129° |
| 2026-05-03 23:08 | -34.46112 | -58.98633 | 14102 ft | 341 kts | 129° |
| 2026-05-03 23:08 | -34.47373 | -58.96208 | 13696 ft | 339 kts | 128° |
| 2026-05-03 23:08 | -34.48622 | -58.93800 | 13304 ft | 336 kts | 128° |
| 2026-05-03 23:08 | -34.49861 | -58.91411 | 12910 ft | 333 kts | 128° |
| 2026-05-03 23:09 | -34.51091 | -58.89045 | 12539 ft | 330 kts | 128° |
| 2026-05-03 23:09 | -34.52311 | -58.86703 | 12176 ft | 327 kts | 128° |
| 2026-05-03 23:09 | -34.53523 | -58.84378 | 11803 ft | 325 kts | 128° |
| 2026-05-03 23:09 | -34.54726 | -58.82069 | 11434 ft | 323 kts | 128° |
| 2026-05-03 23:10 | -34.55907 | -58.79764 | 11065 ft | 322 kts | 124° |
| 2026-05-03 23:10 | -34.56790 | -58.77255 | 10699 ft | 325 kts | 112° |
| 2026-05-03 23:10 | -34.57497 | -58.74658 | 10323 ft | 323 kts | 113° |
| 2026-05-03 23:10 | -34.58194 | -58.72124 | 9967 ft | 309 kts | 113° |
| 2026-05-03 23:11 | -34.58866 | -58.69689 | 9463 ft | 300 kts | 113° |
| 2026-05-03 23:11 | -34.59511 | -58.67347 | 9186 ft | 287 kts | 113° |
| 2026-05-03 23:11 | -34.60142 | -58.65062 | 8880 ft | 285 kts | 113° |
| 2026-05-03 23:11 | -34.60772 | -58.62786 | 8555 ft | 284 kts | 113° |
| 2026-05-03 23:12 | -34.61399 | -58.60517 | 8222 ft | 283 kts | 112° |
| 2026-05-03 23:12 | -34.62017 | -58.58239 | 7855 ft | 284 kts | 112° |
| 2026-05-03 23:12 | -34.62628 | -58.55957 | 7486 ft | 285 kts | 112° |
| 2026-05-03 23:12 | -34.63234 | -58.53671 | 7126 ft | 285 kts | 111° |
| 2026-05-03 23:13 | -34.63834 | -58.51403 | 6785 ft | 278 kts | 111° |
| 2026-05-03 23:13 | -34.64417 | -58.49206 | 6397 ft | 269 kts | 111° |
| 2026-05-03 23:13 | -34.64978 | -58.47089 | 6056 ft | 259 kts | 111° |
| 2026-05-03 23:13 | -34.65529 | -58.45013 | 5718 ft | 250 kts | 111° |
| 2026-05-03 23:14 | -34.66048 | -58.43052 | 5392 ft | 248 kts | 111° |
| 2026-05-03 23:14 | -34.66576 | -58.41059 | 5058 ft | 249 kts | 110° |
| 2026-05-03 23:14 | -34.67106 | -58.39058 | 4720 ft | 249 kts | 110° |
| 2026-05-03 23:14 | -34.67637 | -58.37051 | 4379 ft | 250 kts | 110° |
| 2026-05-03 23:15 | -34.68169 | -58.35048 | 4060 ft | 245 kts | 110° |
| 2026-05-03 23:15 | -34.68674 | -58.33141 | 3983 ft | 224 kts | 110° |
| 2026-05-03 23:15 | -34.69073 | -58.31399 | 3898 ft | 212 kts | 98° |
| 2026-05-03 23:15 | -34.68949 | -58.29652 | 3798 ft | 206 kts | 73° |
| 2026-05-03 23:16 | -34.68219 | -58.28196 | 3694 ft | 203 kts | 45° |
| 2026-05-03 23:16 | -34.67080 | -58.27198 | 3538 ft | 202 kts | 23° |
| 2026-05-03 23:16 | -34.65719 | -58.26834 | 3288 ft | 201 kts | 356° |
| 2026-05-03 23:16 | -34.64369 | -58.27230 | 2938 ft | 203 kts | 330° |
| 2026-05-03 23:17 | -34.63599 | -58.27904 | 2722 ft | 200 kts | 312° |
| 2026-05-03 23:17 | -34.62530 | -58.29699 | 2270 ft | 193 kts | 301° |
| 2026-05-03 23:17 | -34.61810 | -58.30993 | 1950 ft | 182 kts | 302° |
| 2026-05-03 23:17 | -34.61345 | -58.31826 | 1777 ft | 171 kts | 301° |
| 2026-05-03 23:18 | -34.60709 | -58.32964 | 1541 ft | 153 kts | 302° |
| 2026-05-03 23:18 | -34.60135 | -58.33989 | 1335 ft | 143 kts | 302° |
| 2026-05-03 23:18 | -34.59592 | -58.34973 | 1142 ft | 139 kts | 301° |
| 2026-05-03 23:18 | -34.59060 | -58.35944 | 964 ft | 138 kts | 300° |
| 2026-05-03 23:19 | -34.58529 | -58.36914 | 789 ft | 137 kts | 304° |
| 2026-05-03 23:19 | -34.58001 | -58.37861 | 634 ft | 134 kts | 302° |
| 2026-05-03 23:19 | -34.57495 | -58.38794 | 471 ft | 131 kts | 309° |
| 2026-05-03 23:19 | -34.56975 | -58.39692 | 273 ft | 130 kts | 307° |
| 2026-05-03 23:20 | -34.56476 | -58.40594 | 90 ft | 128 kts | 307° |
| 2026-05-03 23:20 | -34.56005 | -58.41421 | 26 ft | 91 kts | 304° |
| 2026-05-03 23:20 | -34.55806 | -58.41778 | 22 ft | 26 kts | 303° |
| 2026-05-03 23:20 | -34.55729 | -58.41899 | 22 ft | 12 kts | 339° |
| 2026-05-03 23:21 | -34.55685 | -58.41846 | 23 ft | 10 kts | 101° |
| 2026-05-03 23:21 | -34.55721 | -58.41770 | 23 ft | 11 kts | 123° |
| 2026-05-03 23:21 | -34.55765 | -58.41682 | 26 ft | 13 kts | 116° |
| 2026-05-03 23:21 | -34.55766 | -58.41615 | 24 ft | 4 kts | 57° |
| 2026-05-03 23:22 | -34.55726 | -58.41556 | 24 ft | 6 kts | 59° |
| 2026-05-03 23:22 | -34.55701 | -58.41538 | 24 ft | 3 kts | 358° |
| 2026-05-03 23:22 | -34.55671 | -58.41531 | 24 ft | 6 kts | 21° |
| 2026-05-03 23:23 | -34.55656 | -58.41523 | 25 ft | 0 kts | 26° |